createdAt,value
2018-11-28T00:00:31.741Z,25.10
2018-11-28T00:01:31.712Z,24.00
2018-11-28T00:02:31.705Z,28.00
2018-11-28T00:03:31.702Z,22.90
2018-11-28T00:04:31.693Z,28.90
2018-11-28T00:05:31.689Z,26.50
2018-11-28T00:06:31.677Z,24.70
2018-11-28T00:07:31.659Z,26.80
2018-11-28T00:08:31.648Z,29.60
2018-11-28T00:09:31.639Z,25.60
2018-11-28T00:10:31.626Z,25.60
2018-11-28T00:11:31.644Z,24.70
2018-11-28T00:12:31.615Z,24.80
2018-11-28T00:13:31.591Z,28.00
2018-11-28T00:14:31.584Z,24.90
2018-11-28T00:15:31.578Z,27.60
2018-11-28T00:16:31.587Z,24.60
2018-11-28T00:17:31.555Z,25.40
2018-11-28T00:18:31.546Z,25.10
2018-11-28T00:19:31.534Z,26.90
2018-11-28T00:20:31.519Z,28.00
2018-11-28T00:21:31.528Z,29.40
2018-11-28T00:22:31.522Z,26.10
2018-11-28T00:23:31.485Z,24.10
2018-11-28T00:24:31.472Z,30.70
2018-11-28T00:25:31.463Z,28.50
2018-11-28T00:26:31.455Z,29.50
2018-11-28T00:27:31.469Z,28.60
2018-11-28T00:28:31.437Z,25.50
2018-11-28T00:29:31.427Z,28.30
2018-11-28T00:30:31.414Z,25.30
2018-11-28T00:31:31.401Z,27.70
2018-11-28T00:32:31.400Z,26.90
2018-11-28T00:33:31.389Z,25.70
2018-11-28T00:34:31.372Z,27.70
2018-11-28T00:35:31.360Z,27.80
2018-11-28T00:36:31.363Z,26.50
2018-11-28T00:37:31.332Z,27.50
2018-11-28T00:38:31.323Z,28.20
2018-11-28T00:39:31.322Z,28.40
2018-11-28T00:40:31.307Z,25.60
2018-11-28T00:41:31.313Z,25.80
2018-11-28T00:42:31.285Z,28.60
2018-11-28T00:43:31.274Z,28.40
2018-11-28T00:44:31.271Z,27.10
2018-11-28T00:45:31.265Z,27.40
2018-11-28T00:46:31.250Z,26.30
2018-11-28T00:47:31.229Z,28.00
2018-11-28T00:48:31.233Z,26.20
2018-11-28T00:49:31.246Z,27.30
2018-11-28T00:50:31.199Z,25.90
2018-11-28T00:51:31.204Z,25.30
2018-11-28T00:52:31.195Z,27.80
2018-11-28T00:53:31.787Z,29.90
2018-11-28T00:54:31.247Z,29.10
2018-11-28T00:55:31.233Z,26.60
2018-11-28T00:56:31.164Z,27.50
2018-11-28T00:57:31.249Z,28.10
2018-11-28T00:58:31.108Z,24.80
2018-11-28T00:59:31.140Z,26.00
2018-11-28T01:00:31.130Z,25.70
2018-11-28T01:01:31.101Z,27.70
2018-11-28T01:02:31.085Z,29.40
2018-11-28T01:03:31.055Z,27.20
2018-11-28T01:04:31.045Z,29.60
2018-11-28T01:05:31.030Z,26.50
2018-11-28T01:06:31.029Z,28.40
2018-11-28T01:07:31.026Z,28.90
2018-11-28T01:08:31.039Z,27.20
2018-11-28T01:09:30.992Z,25.40
2018-11-28T01:10:30.997Z,28.20
2018-11-28T01:11:30.981Z,30.10
2018-11-28T01:12:30.970Z,28.80
2018-11-28T01:13:30.982Z,26.30
2018-11-28T01:14:30.956Z,28.70
2018-11-28T01:15:30.937Z,26.00
2018-11-28T01:16:30.920Z,31.80
2018-11-28T01:17:30.936Z,28.90
2018-11-28T01:18:30.937Z,26.50
2018-11-28T01:19:30.906Z,26.90
2018-11-28T01:20:30.893Z,27.30
2018-11-28T01:21:30.883Z,27.40
2018-11-28T01:22:30.855Z,27.50
2018-11-28T01:23:30.848Z,27.80
2018-11-28T01:24:30.860Z,29.10
2018-11-28T01:25:30.827Z,29.90
2018-11-28T01:26:30.814Z,27.30
2018-11-28T01:27:30.802Z,27.00
2018-11-28T01:28:30.802Z,29.60
2018-11-28T01:29:30.785Z,31.40
2018-11-28T01:30:30.799Z,28.80
2018-11-28T01:31:30.764Z,27.60
2018-11-28T01:32:30.754Z,27.50
2018-11-28T01:33:30.789Z,29.30
2018-11-28T01:34:30.748Z,29.60
2018-11-28T01:35:30.717Z,28.10
2018-11-28T01:36:30.736Z,30.20
2018-11-28T01:37:30.696Z,29.50
2018-11-28T01:38:30.687Z,28.40
2018-11-28T01:39:30.693Z,28.40
2018-11-28T01:40:30.693Z,29.70
2018-11-28T01:41:30.653Z,29.20
2018-11-28T01:42:30.653Z,27.90
2018-11-28T01:43:30.676Z,29.20
2018-11-28T01:44:30.641Z,27.40
2018-11-28T01:45:30.617Z,26.30
2018-11-28T01:46:30.611Z,27.70
2018-11-28T01:47:30.591Z,26.00
2018-11-28T01:48:30.582Z,29.30
2018-11-28T01:49:30.582Z,28.20
2018-11-28T01:50:30.571Z,29.30
2018-11-28T01:51:30.567Z,28.70
2018-11-28T01:52:30.545Z,31.20
2018-11-28T01:53:30.594Z,31.60
2018-11-28T01:54:30.562Z,28.00
2018-11-28T01:55:30.509Z,25.90
2018-11-28T01:56:30.494Z,33.20
2018-11-28T01:57:30.493Z,26.20
2018-11-28T01:58:30.497Z,26.20
2018-11-28T01:59:30.476Z,28.90
2018-11-28T02:00:30.473Z,28.00
2018-11-28T02:01:30.455Z,28.50
2018-11-28T02:02:30.440Z,25.30
2018-11-28T02:03:30.448Z,29.70
2018-11-28T02:04:30.419Z,27.30
2018-11-28T02:05:30.428Z,27.50
2018-11-28T02:06:30.396Z,26.40
2018-11-28T02:07:30.381Z,29.10
2018-11-28T02:08:30.368Z,26.60
2018-11-28T02:09:30.371Z,25.50
2018-11-28T02:10:30.381Z,26.30
2018-11-28T02:11:30.350Z,28.70
2018-11-28T02:12:30.333Z,26.70
2018-11-28T02:13:30.315Z,26.20
2018-11-28T02:14:30.307Z,29.00
2018-11-28T02:15:30.300Z,24.50
2018-11-28T02:16:30.313Z,30.00
2018-11-28T02:17:30.307Z,28.10
2018-11-28T02:18:30.267Z,25.90
2018-11-28T02:19:30.264Z,27.20
2018-11-28T02:20:30.242Z,27.20
2018-11-28T02:21:30.252Z,29.00
2018-11-28T02:22:30.224Z,27.60
2018-11-28T02:23:30.224Z,26.30
2018-11-28T02:24:30.214Z,26.10
2018-11-28T02:25:30.205Z,26.30
2018-11-28T02:26:30.226Z,26.70
2018-11-28T02:27:30.186Z,25.60
2018-11-28T02:28:30.160Z,27.50
2018-11-28T02:29:30.157Z,30.60
2018-11-28T02:30:30.144Z,27.00
2018-11-28T02:31:30.131Z,29.90
2018-11-28T02:32:30.129Z,30.70
2018-11-28T02:33:30.108Z,29.80
2018-11-28T02:34:30.109Z,29.40
2018-11-28T02:35:30.095Z,27.40
2018-11-28T02:36:30.118Z,24.90
2018-11-28T02:37:30.083Z,25.00
2018-11-28T02:38:30.058Z,29.70
2018-11-28T02:39:30.052Z,25.50
2018-11-28T02:40:30.048Z,24.50
2018-11-28T02:41:30.032Z,25.80
2018-11-28T02:42:30.023Z,27.20
2018-11-28T02:43:30.019Z,28.50
2018-11-28T02:44:30.000Z,26.30
2018-11-28T02:45:29.981Z,25.30
2018-11-28T02:46:29.979Z,28.20
2018-11-28T02:47:29.982Z,26.70
2018-11-28T02:48:29.957Z,28.00
2018-11-28T02:49:29.972Z,28.20
2018-11-28T02:50:29.943Z,30.50
2018-11-28T02:51:29.922Z,26.00
2018-11-28T02:52:29.923Z,27.30
2018-11-28T02:53:29.908Z,26.70
2018-11-28T02:54:29.921Z,30.70
2018-11-28T02:55:29.882Z,26.30
2018-11-28T02:56:29.874Z,28.60
2018-11-28T02:57:29.869Z,25.00
2018-11-28T02:58:29.853Z,27.80
2018-11-28T02:59:29.867Z,25.00
2018-11-28T03:00:29.829Z,29.60
2018-11-28T03:01:29.826Z,27.90
2018-11-28T03:02:29.814Z,28.00
2018-11-28T03:03:29.804Z,26.60
2018-11-28T03:04:29.783Z,28.40
2018-11-28T03:05:29.794Z,24.40
2018-11-28T03:06:29.763Z,25.80
2018-11-28T03:07:29.768Z,27.40
2018-11-28T03:08:29.748Z,28.20
2018-11-28T03:09:29.743Z,26.00
2018-11-28T03:10:29.754Z,27.00
2018-11-28T03:11:29.708Z,27.10
2018-11-28T03:12:29.712Z,27.40
2018-11-28T03:13:29.690Z,25.70
2018-11-28T03:14:29.677Z,28.30
2018-11-28T03:15:29.695Z,27.40
2018-11-28T03:16:29.677Z,29.60
2018-11-28T03:17:29.649Z,25.80
2018-11-28T03:18:29.636Z,25.90
2018-11-28T03:19:29.643Z,30.80
2018-11-28T03:20:29.619Z,27.30
2018-11-28T03:21:29.630Z,27.40
2018-11-28T03:22:29.638Z,30.50
2018-11-28T03:23:29.588Z,29.30
2018-11-28T03:24:29.579Z,26.90
2018-11-28T03:25:29.577Z,27.30
2018-11-28T03:26:29.551Z,28.20
2018-11-28T03:27:29.557Z,30.10
2018-11-28T03:28:29.537Z,27.50
2018-11-28T03:29:29.539Z,28.30
2018-11-28T03:30:29.529Z,23.70
2018-11-28T03:31:29.504Z,26.20
2018-11-28T03:32:29.492Z,28.60
2018-11-28T03:33:29.510Z,28.40
2018-11-28T03:34:29.482Z,25.90
2018-11-28T03:35:29.491Z,28.00
2018-11-28T03:36:29.465Z,27.60
2018-11-28T03:37:29.438Z,25.70
2018-11-28T03:38:29.453Z,28.80
2018-11-28T03:39:29.430Z,23.90
2018-11-28T03:40:29.429Z,26.50
2018-11-28T03:41:29.421Z,24.70
2018-11-28T03:42:29.398Z,25.50
2018-11-28T03:43:29.372Z,27.10
2018-11-28T03:44:29.379Z,27.00
2018-11-28T03:45:29.364Z,27.00
2018-11-28T03:46:29.351Z,25.50
2018-11-28T03:47:29.340Z,28.20
2018-11-28T03:48:29.336Z,28.20
2018-11-28T03:49:29.316Z,27.90
2018-11-28T03:50:29.308Z,26.10
2018-11-28T03:51:29.312Z,27.00
2018-11-28T03:52:29.286Z,25.00
2018-11-28T03:53:29.282Z,28.30
2018-11-28T03:54:29.264Z,28.80
2018-11-28T03:55:29.279Z,26.80
2018-11-28T03:56:29.256Z,25.30
2018-11-28T03:57:29.250Z,28.40
2018-11-28T03:58:29.224Z,25.00
2018-11-28T03:59:29.217Z,28.50
2018-11-28T04:00:29.223Z,25.10
2018-11-28T04:01:29.196Z,25.20
2018-11-28T04:02:29.191Z,25.80
2018-11-28T04:03:29.163Z,22.90
2018-11-28T04:04:29.159Z,25.70
2018-11-28T04:05:29.193Z,24.70
2018-11-28T04:06:29.137Z,24.30
2018-11-28T04:07:29.118Z,24.20
2018-11-28T04:08:29.138Z,26.50
2018-11-28T04:09:29.099Z,26.80
2018-11-28T04:10:29.105Z,27.50
2018-11-28T04:11:29.085Z,28.60
2018-11-28T04:12:29.072Z,26.60
2018-11-28T04:13:29.064Z,27.40
2018-11-28T04:14:29.052Z,25.30
2018-11-28T04:15:29.057Z,26.40
2018-11-28T04:16:29.039Z,27.20
2018-11-28T04:17:29.024Z,28.90
2018-11-28T04:18:29.024Z,28.80
2018-11-28T04:19:28.996Z,27.90
2018-11-28T04:20:29.001Z,25.80
2018-11-28T04:21:28.972Z,27.50
2018-11-28T04:22:28.975Z,27.40
2018-11-28T04:23:28.971Z,28.10
2018-11-28T04:24:28.956Z,26.00
2018-11-28T04:25:28.931Z,26.80
2018-11-28T04:26:28.948Z,27.00
2018-11-28T04:27:28.907Z,25.50
2018-11-28T04:28:28.898Z,29.80
2018-11-28T04:29:28.890Z,26.90
2018-11-28T04:30:28.881Z,26.60
2018-11-28T04:31:28.895Z,27.20
2018-11-28T04:32:28.880Z,24.80
2018-11-28T04:33:28.875Z,24.50
2018-11-28T04:34:28.841Z,27.20
2018-11-28T04:35:28.820Z,28.30
2018-11-28T04:36:28.827Z,28.30
2018-11-28T04:37:28.809Z,26.80
2018-11-28T04:38:29.447Z,27.10
2018-11-28T04:39:28.813Z,27.90
2018-11-28T04:40:28.775Z,28.20
2018-11-28T04:41:28.775Z,30.10
2018-11-28T04:42:28.748Z,29.60
2018-11-28T04:43:28.744Z,29.20
2018-11-28T04:44:28.733Z,29.60
2018-11-28T04:45:28.733Z,29.80
2018-11-28T04:46:28.713Z,28.00
2018-11-28T04:47:28.704Z,28.30
2018-11-28T04:48:28.685Z,28.00
2018-11-28T04:49:28.678Z,27.30
2018-11-28T04:50:28.667Z,33.00
2018-11-28T04:51:28.677Z,29.30
2018-11-28T04:52:28.698Z,27.70
2018-11-28T04:53:28.638Z,26.70
2018-11-28T04:54:28.620Z,29.00
2018-11-28T04:55:28.629Z,27.40
2018-11-28T04:56:28.622Z,31.80
2018-11-28T04:57:28.604Z,29.90
2018-11-28T04:58:28.585Z,28.20
2018-11-28T04:59:28.575Z,30.40
2018-11-28T05:00:28.568Z,30.40
2018-11-28T05:01:28.551Z,26.20
2018-11-28T05:02:28.564Z,26.80
2018-11-28T05:03:28.534Z,29.00
2018-11-28T05:04:28.533Z,28.40
2018-11-28T05:05:28.516Z,26.80
2018-11-28T05:06:28.513Z,26.00
2018-11-28T05:07:28.497Z,33.30
2018-11-28T05:08:28.479Z,30.00
2018-11-28T05:09:28.467Z,30.00
2018-11-28T05:10:28.461Z,28.50
2018-11-28T05:11:28.445Z,29.30
2018-11-28T05:12:28.442Z,29.00
2018-11-28T05:13:28.441Z,29.70
2018-11-28T05:14:28.410Z,27.90
2018-11-28T05:15:28.413Z,29.70
2018-11-28T05:16:28.402Z,27.10
2018-11-28T05:17:28.411Z,30.90
2018-11-28T05:18:28.374Z,28.00
2018-11-28T05:19:28.361Z,28.10
2018-11-28T05:20:28.356Z,29.80
2018-11-28T05:21:28.344Z,27.30
2018-11-28T05:22:28.342Z,27.90
2018-11-28T05:23:28.320Z,29.90
2018-11-28T05:24:28.310Z,32.10
2018-11-28T05:25:28.321Z,28.90
2018-11-28T05:26:28.280Z,29.30
2018-11-28T05:27:28.289Z,27.80
2018-11-28T05:28:28.262Z,30.90
2018-11-28T05:29:28.258Z,27.50
2018-11-28T05:30:28.243Z,29.50
2018-11-28T05:31:28.224Z,27.90
2018-11-28T05:32:28.246Z,28.90
2018-11-28T05:33:28.207Z,30.70
2018-11-28T05:34:28.192Z,33.40
2018-11-28T05:35:28.190Z,29.40
2018-11-28T05:36:28.178Z,34.60
2018-11-28T05:37:28.186Z,28.60
2018-11-28T05:38:28.175Z,27.10
2018-11-28T05:39:28.140Z,26.20
2018-11-28T05:40:28.131Z,28.60
2018-11-28T05:41:28.125Z,30.30
2018-11-28T05:42:28.129Z,30.00
2018-11-28T05:43:28.108Z,28.30
2018-11-28T05:44:28.096Z,29.70
2018-11-28T05:45:28.081Z,27.60
2018-11-28T05:46:28.065Z,29.90
2018-11-28T05:47:28.073Z,29.80
2018-11-28T05:48:28.066Z,30.20
2018-11-28T05:49:28.039Z,28.10
2018-11-28T05:50:28.031Z,29.60
2018-11-28T05:51:28.011Z,29.30
2018-11-28T05:52:28.022Z,26.90
2018-11-28T05:53:27.999Z,28.60
2018-11-28T05:54:27.981Z,28.90
2018-11-28T05:55:27.981Z,30.70
2018-11-28T05:56:27.965Z,27.10
2018-11-28T05:57:27.968Z,29.80
2018-11-28T05:58:27.945Z,30.20
2018-11-28T05:59:27.954Z,31.20
2018-11-28T06:00:27.922Z,27.90
2018-11-28T06:01:27.929Z,30.40
2018-11-28T06:02:27.961Z,28.90
2018-11-28T06:03:28.661Z,29.90
2018-11-28T06:04:27.925Z,28.20
2018-11-28T06:05:27.924Z,29.70
2018-11-28T06:06:27.911Z,28.70
2018-11-28T06:07:27.866Z,31.60
2018-11-28T06:08:27.837Z,28.20
2018-11-28T06:09:27.825Z,32.90
2018-11-28T06:10:27.818Z,30.00
2018-11-28T06:11:27.822Z,28.50
2018-11-28T06:12:27.792Z,29.10
2018-11-28T06:13:27.784Z,30.60
2018-11-28T06:14:27.801Z,33.20
2018-11-28T06:15:27.759Z,29.30
2018-11-28T06:16:27.754Z,29.00
2018-11-28T06:17:27.751Z,32.40
2018-11-28T06:18:27.727Z,30.10
2018-11-28T06:19:27.722Z,29.00
2018-11-28T06:20:27.758Z,28.50
2018-11-28T06:21:27.749Z,29.30
2018-11-28T06:22:27.696Z,27.60
2018-11-28T06:23:27.680Z,31.70
2018-11-28T06:24:27.700Z,34.80
2018-11-28T06:25:27.694Z,29.90
2018-11-28T06:26:27.702Z,31.10
2018-11-28T06:27:27.642Z,29.70
2018-11-28T06:28:27.623Z,31.10
2018-11-28T06:29:27.617Z,26.80
2018-11-28T06:30:27.603Z,31.70
2018-11-28T06:31:27.626Z,31.00
2018-11-28T06:32:27.594Z,30.10
2018-11-28T06:33:27.594Z,30.20
2018-11-28T06:34:27.568Z,32.10
2018-11-28T06:35:27.592Z,28.60
2018-11-28T06:36:27.550Z,29.10
2018-11-28T06:37:27.545Z,31.20
2018-11-28T06:38:27.513Z,26.60
2018-11-28T06:39:27.510Z,28.20
2018-11-28T06:40:27.512Z,28.00
2018-11-28T06:41:27.537Z,29.50
2018-11-28T06:42:27.507Z,28.50
2018-11-28T06:43:27.541Z,30.20
2018-11-28T06:44:27.454Z,30.90
2018-11-28T06:45:27.454Z,29.40
2018-11-28T06:46:27.436Z,31.20
2018-11-28T06:47:27.417Z,30.00
2018-11-28T06:48:27.410Z,31.90
2018-11-28T06:49:27.412Z,28.80
2018-11-28T06:50:27.398Z,30.20
2018-11-28T06:51:27.382Z,29.90
2018-11-28T06:52:27.369Z,29.90
2018-11-28T06:53:27.359Z,30.10
2018-11-28T06:54:27.362Z,31.00
2018-11-28T06:55:27.385Z,27.30
2018-11-28T06:56:27.324Z,30.90
2018-11-28T06:57:27.343Z,29.30
2018-11-28T06:58:27.300Z,28.10
2018-11-28T06:59:27.347Z,30.90
2018-11-28T07:00:27.299Z,30.60
2018-11-28T07:01:27.279Z,28.50
2018-11-28T07:02:27.262Z,28.00
2018-11-28T07:03:27.264Z,28.60
2018-11-28T07:04:27.241Z,30.20
2018-11-28T07:05:27.257Z,30.50
2018-11-28T07:06:27.252Z,28.90
2018-11-28T07:07:27.204Z,29.20
2018-11-28T07:08:27.204Z,31.20
2018-11-28T07:09:27.194Z,30.40
2018-11-28T07:10:27.199Z,30.20
2018-11-28T07:11:27.175Z,30.50
2018-11-28T07:12:27.161Z,26.70
2018-11-28T07:13:27.150Z,26.60
2018-11-28T07:14:27.146Z,28.80
2018-11-28T07:15:27.131Z,31.60
2018-11-28T07:16:27.194Z,29.70
2018-11-28T07:17:27.115Z,28.10
2018-11-28T07:18:27.101Z,26.70
2018-11-28T07:19:27.097Z,30.00
2018-11-28T07:20:27.109Z,31.10
2018-11-28T07:21:27.062Z,30.70
2018-11-28T07:22:27.052Z,29.10
2018-11-28T07:23:27.047Z,28.00
2018-11-28T07:24:27.036Z,27.90
2018-11-28T07:25:27.043Z,28.80
2018-11-28T07:26:27.020Z,24.50
2018-11-28T07:27:27.008Z,26.30
2018-11-28T07:28:26.986Z,28.70
2018-11-28T07:29:26.970Z,25.50
2018-11-28T07:30:26.981Z,29.60
2018-11-28T07:31:26.961Z,27.50
2018-11-28T07:32:26.966Z,25.40
2018-11-28T07:33:26.937Z,27.40
2018-11-28T07:34:26.920Z,26.70
2018-11-28T07:35:26.932Z,27.80
2018-11-28T07:36:26.935Z,28.40
2018-11-28T07:37:26.895Z,30.60
2018-11-28T07:38:26.881Z,29.70
2018-11-28T07:39:26.868Z,28.80
2018-11-28T07:40:26.855Z,29.10
2018-11-28T07:41:26.890Z,27.30
2018-11-28T07:42:26.841Z,30.00
2018-11-28T07:43:26.839Z,26.40
2018-11-28T07:44:26.841Z,31.00
2018-11-28T07:45:26.839Z,28.70
2018-11-28T07:46:26.797Z,27.00
2018-11-28T07:47:26.789Z,31.80
2018-11-28T07:48:26.770Z,27.40
2018-11-28T07:49:26.832Z,28.80
2018-11-28T07:50:26.808Z,30.60
2018-11-28T07:51:26.761Z,26.80
2018-11-28T07:52:26.734Z,30.50
2018-11-28T07:53:26.737Z,30.50
2018-11-28T07:54:26.731Z,28.90
2018-11-28T07:55:26.703Z,28.20
2018-11-28T07:56:26.695Z,30.70
2018-11-28T07:57:26.709Z,31.10
2018-11-28T07:58:26.678Z,31.80
2018-11-28T07:59:26.684Z,30.20
2018-11-28T08:00:26.649Z,28.70
2018-11-28T08:01:26.678Z,29.30
2018-11-28T08:02:26.636Z,29.90
2018-11-28T08:03:26.621Z,29.40
2018-11-28T08:04:26.787Z,28.50
2018-11-28T08:05:26.610Z,28.20
2018-11-28T08:06:26.591Z,28.50
2018-11-28T08:07:26.584Z,30.90
2018-11-28T08:08:26.574Z,29.90
2018-11-28T08:09:26.572Z,28.80
2018-11-28T08:10:26.603Z,32.70
2018-11-28T08:11:26.562Z,32.20
2018-11-28T08:12:26.541Z,27.90
2018-11-28T08:13:26.510Z,29.80
2018-11-28T08:14:26.520Z,28.30
2018-11-28T08:15:26.498Z,32.50
2018-11-28T08:16:26.502Z,33.40
2018-11-28T08:17:26.479Z,30.20
2018-11-28T08:18:26.462Z,30.30
2018-11-28T08:19:26.449Z,32.30
2018-11-28T08:20:26.447Z,30.00
2018-11-28T08:21:26.436Z,30.10
2018-11-28T08:22:27.350Z,32.30
2018-11-28T08:23:26.418Z,30.50
2018-11-28T08:24:26.394Z,29.40
2018-11-28T08:25:28.006Z,30.90
2018-11-28T08:26:26.380Z,30.60
2018-11-28T08:27:26.425Z,29.90
2018-11-28T08:28:26.380Z,26.00
2018-11-28T08:29:26.361Z,31.80
2018-11-28T08:30:26.344Z,29.10
2018-11-28T08:31:26.327Z,32.50
2018-11-28T08:32:26.342Z,31.00
2018-11-28T08:33:26.314Z,32.10
2018-11-28T08:34:26.293Z,28.20
2018-11-28T08:35:26.296Z,29.00
2018-11-28T08:36:26.317Z,29.00
2018-11-28T08:37:26.274Z,30.60
2018-11-28T08:38:26.262Z,27.90
2018-11-28T08:39:26.242Z,32.90
2018-11-28T08:40:26.238Z,29.60
2018-11-28T08:41:26.224Z,30.20
2018-11-28T08:42:26.214Z,29.90
2018-11-28T08:43:26.220Z,30.20
2018-11-28T08:44:26.187Z,31.10
2018-11-28T08:45:26.176Z,30.30
2018-11-28T08:46:26.972Z,27.50
2018-11-28T08:47:26.171Z,29.00
2018-11-28T08:48:26.219Z,28.80
2018-11-28T08:49:26.141Z,29.90
2018-11-28T08:50:26.166Z,30.30
2018-11-28T08:51:26.115Z,28.00
2018-11-28T08:52:26.107Z,27.60
2018-11-28T08:53:26.101Z,28.90
2018-11-28T08:54:26.100Z,28.80
2018-11-28T08:55:26.083Z,27.40
2018-11-28T08:56:26.059Z,30.40
2018-11-28T08:57:26.048Z,30.50
2018-11-28T08:58:26.041Z,33.70
2018-11-28T08:59:26.045Z,27.60
2018-11-28T09:00:26.034Z,30.40
2018-11-28T09:01:26.020Z,28.40
2018-11-28T09:02:26.009Z,28.90
2018-11-28T09:03:25.997Z,31.40
2018-11-28T09:04:25.993Z,30.30
2018-11-28T09:05:25.969Z,29.00
2018-11-28T09:06:25.966Z,29.10
2018-11-28T09:07:25.951Z,32.80
2018-11-28T09:08:25.943Z,33.20
2018-11-28T09:09:25.961Z,29.50
2018-11-28T09:10:25.916Z,27.80
2018-11-28T09:11:25.910Z,31.60
2018-11-28T09:12:25.920Z,29.60
2018-11-28T09:13:25.915Z,29.60
2018-11-28T09:14:25.877Z,30.50
2018-11-28T09:15:25.887Z,29.70
2018-11-28T09:16:25.852Z,31.30
2018-11-28T09:17:25.840Z,34.30
2018-11-28T09:18:25.850Z,31.10
2018-11-28T09:19:25.834Z,29.90
2018-11-28T09:20:25.834Z,31.00
2018-11-28T09:21:25.815Z,28.80
2018-11-28T09:22:25.802Z,28.10
2018-11-28T09:23:25.801Z,28.90
2018-11-28T09:24:25.774Z,29.80
2018-11-28T09:25:25.768Z,28.60
2018-11-28T09:26:25.766Z,28.60
2018-11-28T09:27:25.742Z,32.80
2018-11-28T09:28:25.724Z,30.10
2018-11-28T09:29:25.715Z,28.30
2018-11-28T09:30:25.705Z,30.60
2018-11-28T09:31:25.717Z,28.00
2018-11-28T09:32:25.692Z,28.90
2018-11-28T09:33:25.727Z,32.60
2018-11-28T09:34:25.667Z,29.30
2018-11-28T09:35:25.681Z,31.20
2018-11-28T09:36:25.652Z,26.90
2018-11-28T09:37:25.641Z,29.70
2018-11-28T09:38:25.649Z,26.60
2018-11-28T09:39:25.617Z,28.90
2018-11-28T09:40:25.638Z,27.00
2018-11-28T09:41:25.600Z,26.20
2018-11-28T09:42:25.588Z,30.30
2018-11-28T09:43:25.571Z,26.80
2018-11-28T09:44:25.581Z,27.80
2018-11-28T09:45:25.550Z,30.40
2018-11-28T09:46:25.544Z,28.80
2018-11-28T09:47:25.543Z,28.70
2018-11-28T09:48:25.518Z,28.00
2018-11-28T09:49:25.498Z,29.00
2018-11-28T09:50:25.495Z,27.70
2018-11-28T09:51:25.481Z,25.40
2018-11-28T09:52:25.488Z,27.50
2018-11-28T09:53:25.474Z,27.50
2018-11-28T09:54:25.449Z,27.80
2018-11-28T09:55:25.439Z,26.40
2018-11-28T09:56:25.430Z,28.60
2018-11-28T09:57:25.443Z,28.90
2018-11-28T09:58:25.407Z,26.70
2018-11-28T09:59:25.401Z,28.70
2018-11-28T10:00:25.381Z,27.80
2018-11-28T10:01:25.372Z,26.50
2018-11-28T10:02:25.367Z,27.80
2018-11-28T10:03:25.369Z,27.70
2018-11-28T10:04:25.346Z,31.50
2018-11-28T10:05:25.341Z,26.20
2018-11-28T10:06:25.331Z,24.50
2018-11-28T10:07:25.320Z,27.80
2018-11-28T10:08:25.306Z,26.30
2018-11-28T10:09:25.287Z,26.60
2018-11-28T10:10:25.279Z,27.10
2018-11-28T10:11:25.270Z,27.00
2018-11-28T10:12:25.282Z,29.00
2018-11-28T10:13:25.257Z,27.60
2018-11-28T10:14:25.242Z,26.90
2018-11-28T10:15:25.237Z,27.50
2018-11-28T10:16:25.218Z,28.40
2018-11-28T10:17:25.209Z,26.20
2018-11-28T10:18:25.211Z,24.70
2018-11-28T10:19:25.218Z,26.00
2018-11-28T10:20:25.166Z,25.00
2018-11-28T10:21:25.202Z,26.80
2018-11-28T10:22:25.177Z,25.00
2018-11-28T10:23:25.180Z,25.60
2018-11-28T10:24:25.174Z,27.70
2018-11-28T10:25:25.144Z,26.20
2018-11-28T10:26:25.150Z,25.00
2018-11-28T10:27:25.140Z,25.10
2018-11-28T10:28:25.112Z,24.90
2018-11-28T10:29:25.146Z,25.90
2018-11-28T10:30:25.066Z,26.70
2018-11-28T10:31:25.056Z,27.10
2018-11-28T10:32:25.060Z,24.10
2018-11-28T10:33:25.029Z,24.30
2018-11-28T10:34:29.458Z,25.60
2018-11-28T10:35:25.032Z,27.00
2018-11-28T10:36:25.014Z,24.70
2018-11-28T10:37:24.999Z,24.20
2018-11-28T10:38:24.988Z,24.20
2018-11-28T10:39:24.974Z,25.40
2018-11-28T10:40:24.964Z,23.20
2018-11-28T10:41:24.951Z,25.50
2018-11-28T10:42:24.941Z,26.00
2018-11-28T10:43:24.928Z,27.20
2018-11-28T10:44:24.919Z,25.30
2018-11-28T10:45:24.917Z,25.70
2018-11-28T10:46:24.895Z,24.20
2018-11-28T10:47:24.885Z,25.60
2018-11-28T10:48:24.908Z,25.60
2018-11-28T10:49:24.897Z,22.70
2018-11-28T10:50:24.886Z,25.20
2018-11-28T10:51:24.840Z,25.60
2018-11-28T10:52:24.828Z,25.00
2018-11-28T10:53:24.834Z,24.50
2018-11-28T10:54:24.826Z,28.70
2018-11-28T10:55:24.823Z,24.70
2018-11-28T10:56:24.810Z,25.80
2018-11-28T10:57:24.827Z,25.80
2018-11-28T10:58:24.804Z,25.20
2018-11-28T10:59:24.801Z,27.00
2018-11-28T11:00:24.900Z,24.20
2018-11-28T11:01:24.784Z,24.70
2018-11-28T11:02:24.727Z,24.00
2018-11-28T11:03:24.712Z,26.30
2018-11-28T11:04:24.732Z,23.80
2018-11-28T11:05:24.687Z,21.50
2018-11-28T11:06:24.730Z,25.70
2018-11-28T11:07:24.681Z,20.90
2018-11-28T11:08:24.662Z,28.60
2018-11-28T11:09:24.660Z,23.30
2018-11-28T11:10:24.641Z,24.50
2018-11-28T11:11:24.643Z,24.60
2018-11-28T11:12:24.617Z,22.40
2018-11-28T11:13:24.627Z,25.10
2018-11-28T11:14:24.608Z,24.70
2018-11-28T11:15:24.597Z,22.60
2018-11-28T11:16:24.578Z,24.90
2018-11-28T11:17:24.578Z,23.10
2018-11-28T11:18:24.554Z,26.20
2018-11-28T11:19:24.594Z,21.10
2018-11-28T11:20:24.535Z,23.80
2018-11-28T11:21:24.526Z,21.90
2018-11-28T11:22:24.511Z,22.20
2018-11-28T11:23:24.582Z,26.30
2018-11-28T11:24:24.485Z,24.80
2018-11-28T11:25:24.506Z,23.60
2018-11-28T11:26:24.466Z,20.50
2018-11-28T11:27:24.458Z,23.20
2018-11-28T11:28:24.460Z,24.00
2018-11-28T11:29:24.447Z,22.00
2018-11-28T11:30:24.437Z,22.50
2018-11-28T11:31:24.414Z,20.80
2018-11-28T11:32:24.405Z,22.60
2018-11-28T11:33:24.411Z,22.30
2018-11-28T11:34:24.384Z,23.10
2018-11-28T11:35:24.386Z,22.00
2018-11-28T11:36:24.365Z,25.20
2018-11-28T11:37:24.358Z,22.40
2018-11-28T11:38:24.344Z,23.50
2018-11-28T11:39:24.334Z,22.20
2018-11-28T11:40:24.338Z,25.30
2018-11-28T11:41:24.551Z,23.80
2018-11-28T11:42:24.312Z,21.60
2018-11-28T11:43:24.290Z,23.70
2018-11-28T11:44:24.298Z,22.70
2018-11-28T11:45:24.271Z,23.30
2018-11-28T11:46:24.258Z,23.20
2018-11-28T11:47:24.255Z,22.50
2018-11-28T11:48:24.234Z,21.10
2018-11-28T11:49:24.246Z,23.20
2018-11-28T11:50:24.228Z,22.70
2018-11-28T11:51:24.229Z,21.40
2018-11-28T11:52:24.193Z,21.50
2018-11-28T11:53:24.181Z,22.40
2018-11-28T11:54:24.212Z,21.30
2018-11-28T11:55:24.166Z,23.70
2018-11-28T11:56:24.176Z,21.90
2018-11-28T11:57:24.150Z,20.50
2018-11-28T11:58:24.132Z,21.30
2018-11-28T11:59:24.125Z,22.90
2018-11-28T12:00:24.105Z,21.80
2018-11-28T12:01:24.108Z,21.30
2018-11-28T12:02:24.089Z,23.30
2018-11-28T12:03:24.083Z,23.20
2018-11-28T12:04:24.088Z,21.30
2018-11-28T12:05:24.050Z,22.10
2018-11-28T12:06:24.060Z,22.60
2018-11-28T12:07:24.038Z,21.60
2018-11-28T12:08:24.031Z,21.90
2018-11-28T12:09:24.030Z,21.60
2018-11-28T12:10:24.011Z,20.30
2018-11-28T12:11:23.997Z,24.70
2018-11-28T12:12:23.975Z,21.60
2018-11-28T12:13:23.965Z,19.70
2018-11-28T12:14:23.979Z,19.90
2018-11-28T12:15:23.951Z,22.50
2018-11-28T12:16:23.947Z,21.40
2018-11-28T12:17:23.931Z,18.70
2018-11-28T12:18:23.920Z,23.10
2018-11-28T12:19:23.918Z,19.10
2018-11-28T12:20:23.892Z,23.40
2018-11-28T12:21:23.888Z,23.10
2018-11-28T12:22:23.874Z,18.60
2018-11-28T12:23:23.902Z,22.20
2018-11-28T12:24:23.856Z,19.70
2018-11-28T12:25:23.840Z,21.50
2018-11-28T12:26:23.839Z,21.00
2018-11-28T12:27:23.841Z,19.30
2018-11-28T12:28:23.869Z,20.00
2018-11-28T12:29:23.800Z,20.30
2018-11-28T12:30:23.789Z,18.90
2018-11-28T12:31:23.791Z,20.70
2018-11-28T12:32:23.798Z,19.70
2018-11-28T12:33:23.868Z,20.20
2018-11-28T12:34:23.751Z,19.30
2018-11-28T12:35:23.744Z,20.20
2018-11-28T12:36:23.746Z,21.80
2018-11-28T12:37:23.734Z,19.30
2018-11-28T12:38:23.703Z,20.70
2018-11-28T12:40:23.692Z,17.60
2018-11-28T12:41:23.677Z,20.90
2018-11-28T12:42:23.683Z,19.10
2018-11-28T12:43:23.661Z,19.90
2018-11-28T12:44:23.637Z,18.70
2018-11-28T12:45:23.641Z,20.50
2018-11-28T12:46:23.616Z,18.80
2018-11-28T12:47:23.609Z,19.30
2018-11-28T12:48:23.618Z,19.40
2018-11-28T12:49:23.587Z,18.50
2018-11-28T12:50:23.581Z,20.40
2018-11-28T12:51:23.571Z,22.20
2018-11-28T12:52:23.545Z,18.40
2018-11-28T12:53:23.559Z,18.00